Time;durP1;ratioP1;P1;durP2;ratioP2;P2;SDS_P1;SDS_P2;PMS_P1;PMS_P2;Temp;Humidity;BMP_temperature;BMP_pressure;BME280_temperature;BME280_humidity;BME280_pressure;Samples;Min_cycle;Max_cycle;Signal;HPM_P1;HPM_P2
2024/04/15 00:00:17;;;;;;;10.52;3.55;;;9.00;1.00;;;;;;5153150;27;20000;-75
2024/04/15 00:02:43;;;;;;;8.95;3.22;;;8.90;1.00;;;;;;5167646;27;20000;-75
2024/04/15 00:05:08;;;;;;;8.40;3.85;;;9.00;1.00;;;;;;5232987;27;20007;-75
2024/04/15 00:07:34;;;;;;;9.82;3.67;;;8.90;1.00;;;;;;5242526;27;19999;-75
2024/04/15 00:10:00;;;;;;;8.38;3.80;;;8.90;1.00;;;;;;5144087;27;20011;-75
2024/04/15 00:12:25;;;;;;;9.75;3.88;;;9.00;1.00;;;;;;5143871;27;20008;-75
2024/04/15 00:14:51;;;;;;;9.60;3.90;;;9.00;1.00;;;;;;5143887;27;20134;-75
2024/04/15 00:17:16;;;;;;;7.80;3.40;;;9.00;1.00;;;;;;5143919;27;19997;-75
2024/04/15 00:19:42;;;;;;;6.97;3.25;;;9.00;1.00;;;;;;5145219;27;20005;-72
2024/04/15 00:22:08;;;;;;;11.18;3.30;;;9.00;1.00;;;;;;5176787;27;20488;-75
2024/04/15 00:24:34;;;;;;;8.25;3.55;;;9.00;1.00;;;;;;5214521;27;19995;-75
2024/04/15 00:27:00;;;;;;;7.90;3.38;;;9.00;23.30;;;;;;5242072;27;20067;-75
2024/04/15 00:29:25;;;;;;;8.00;3.40;;;9.00;56.30;;;;;;5242144;27;19997;-75
2024/04/15 00:31:51;;;;;;;8.10;3.58;;;9.10;46.60;;;;;;5241932;27;20510;-75
2024/04/15 00:34:16;;;;;;;9.05;3.70;;;9.00;29.60;;;;;;5275219;27;19994;-75
2024/04/15 00:36:44;;;;;;;7.53;3.28;;;9.00;1.00;;;;;;5275679;27;19999;-75
2024/04/15 00:39:10;;;;;;;7.28;3.55;;;9.00;3.50;;;;;;5309512;27;19990;-75
2024/04/15 00:41:36;;;;;;;7.57;3.40;;;8.90;1.00;;;;;;5309731;27;20008;-75
2024/04/15 00:44:01;;;;;;;8.50;3.50;;;8.90;18.70;;;;;;5309332;27;20024;-75
2024/04/15 00:46:27;;;;;;;6.18;3.40;;;8.90;23.50;;;;;;5307634;27;19996;-75
2024/04/15 00:48:53;;;;;;;7.22;3.35;;;8.90;21.70;;;;;;5275250;27;20065;-75
2024/04/15 00:51:21;;;;;;;7.35;3.42;;;8.80;50.40;;;;;;5275603;27;20006;-75
2024/04/15 00:53:48;;;;;;;8.43;3.70;;;8.70;42.70;;;;;;5241663;27;20092;-75
2024/04/15 00:56:14;;;;;;;8.13;3.70;;;8.70;27.40;;;;;;5267149;27;20004;-75
2024/04/15 00:58:40;;;;;;;8.35;3.47;;;8.70;46.10;;;;;;5208498;27;20029;-76
2024/04/15 01:01:06;;;;;;;6.88;3.30;;;8.70;82.00;;;;;;5209177;27;19996;-76
2024/04/15 01:03:32;;;;;;;7.88;3.40;;;8.80;99.90;;;;;;5102143;27;19999;-76
2024/04/15 01:05:58;;;;;;;8.00;3.53;;;8.80;99.90;;;;;;5079471;28;20378;-76
2024/04/15 01:08:23;;;;;;;10.20;3.83;;;8.80;99.90;;;;;;5079687;28;20021;-76
2024/04/15 01:10:49;;;;;;;10.40;3.47;;;8.70;99.90;;;;;;5102809;28;20081;-76
2024/04/15 01:13:14;;;;;;;8.15;3.75;;;8.70;99.90;;;;;;5110997;28;20012;-76
2024/04/15 01:15:40;;;;;;;10.25;4.10;;;8.70;99.90;;;;;;5199639;27;20003;-76
2024/04/15 01:18:05;;;;;;;7.90;3.70;;;8.70;99.90;;;;;;5207946;27;19995;-76
2024/04/15 01:20:31;;;;;;;10.32;3.92;;;8.70;99.90;;;;;;5174926;27;19996;-76
2024/04/15 01:23:05;;;;;;;8.85;4.22;;;8.70;99.90;;;;;;5175423;27;20025;-76
2024/04/15 01:25:31;;;;;;;7.70;3.75;;;8.70;99.90;;;;;;5175480;27;20008;-76
2024/04/15 01:27:57;;;;;;;10.10;4.15;;;8.70;99.90;;;;;;5207919;27;20440;-76
2024/04/15 01:30:22;;;;;;;8.00;3.90;;;8.70;99.90;;;;;;5234116;27;20023;-76
2024/04/15 01:32:49;;;;;;;11.20;4.47;;;8.60;99.90;;;;;;5244579;27;20010;-75
2024/04/15 01:35:15;;;;;;;10.48;4.05;;;8.60;99.90;;;;;;5153201;27;20004;-76
2024/04/15 01:37:41;;;;;;;11.65;4.35;;;8.60;99.90;;;;;;5196310;27;20141;-75
2024/04/15 01:40:07;;;;;;;11.52;4.82;;;8.50;99.90;;;;;;5236640;27;20445;-76
2024/04/15 01:42:33;;;;;;;9.40;4.28;;;8.50;99.90;;;;;;5244791;27;20010;-76
2024/04/15 01:44:58;;;;;;;11.68;4.40;;;8.50;99.90;;;;;;5185324;27;20045;-76
2024/04/15 01:47:24;;;;;;;10.88;4.03;;;8.40;99.90;;;;;;5153077;27;20472;-74
2024/04/15 01:49:49;;;;;;;9.00;4.10;;;8.40;99.90;;;;;;5113457;28;20008;-74
2024/04/15 01:52:15;;;;;;;9.95;4.47;;;8.40;99.90;;;;;;5120804;27;19994;-74
2024/04/15 01:54:43;;;;;;;9.60;4.22;;;8.40;99.90;;;;;;5178274;27;20001;-74
2024/04/15 01:57:08;;;;;;;9.05;4.28;;;8.40;99.90;;;;;;5178217;27;20006;-73
2024/04/15 01:59:34;;;;;;;8.55;4.35;;;8.40;99.90;;;;;;5202574;27;20000;-75
2024/04/15 02:01:59;;;;;;;8.65;4.50;;;8.50;99.90;;;;;;5211513;27;20003;-76
2024/04/15 02:04:25;;;;;;;9.23;4.40;;;8.50;99.90;;;;;;5210845;27;20011;-76
2024/04/15 02:06:50;;;;;;;9.45;4.13;;;8.40;99.90;;;;;;5187103;27;20001;-76
2024/04/15 02:09:16;;;;;;;10.50;4.32;;;8.40;99.90;;;;;;5210959;27;20337;-75
2024/04/15 02:11:41;;;;;;;10.85;4.38;;;8.30;99.90;;;;;;5292741;27;20418;-75
2024/04/15 02:14:07;;;;;;;10.23;4.72;;;8.30;1.00;;;;;;5312473;27;20398;-75
2024/04/15 02:16:32;;;;;;;9.40;5.50;;;8.30;1.00;;;;;;5253868;27;19995;-76
2024/04/15 02:18:58;;;;;;;11.40;5.32;;;8.30;1.00;;;;;;5244342;27;19999;-76
2024/04/15 02:21:23;;;;;;;11.10;5.10;;;8.40;1.00;;;;;;5243888;27;19999;-76
2024/04/15 02:23:49;;;;;;;11.50;5.30;;;8.50;1.00;;;;;;5253900;27;19991;-76
2024/04/15 02:26:14;;;;;;;9.57;5.20;;;8.50;1.00;;;;;;5219536;27;20043;-76
2024/04/15 02:28:40;;;;;;;12.02;5.30;;;8.50;1.00;;;;;;5210802;27;19996;-76
2024/04/15 02:31:05;;;;;;;10.98;5.00;;;8.60;1.00;;;;;;5210528;27;19995;-75
2024/04/15 02:33:31;;;;;;;9.18;4.97;;;8.50;1.00;;;;;;5210378;27;19996;-75
2024/04/15 02:35:57;;;;;;;9.77;5.07;;;8.50;1.00;;;;;;5210554;27;20056;-75
2024/04/15 02:38:22;;;;;;;11.98;6.25;;;8.40;27.80;;;;;;5210264;27;20003;-75
2024/04/15 02:40:47;;;;;;;15.38;5.43;;;8.40;3.00;;;;;;5189493;27;20076;-73
2024/04/15 02:43:13;;;;;;;11.27;5.18;;;8.40;15.80;;;;;;5164852;27;19997;-75
2024/04/15 02:45:41;;;;;;;11.18;5.22;;;8.50;45.90;;;;;;5145838;27;20442;-75
2024/04/15 02:48:07;;;;;;;12.20;6.18;;;8.60;99.60;;;;;;5145212;27;20065;-75
2024/04/15 02:50:32;;;;;;;11.68;5.20;;;8.60;99.90;;;;;;5145352;27;20005;-75
2024/04/15 02:52:58;;;;;;;9.80;5.30;;;8.70;99.90;;;;;;5145452;27;20398;-75
2024/04/15 02:55:23;;;;;;;12.38;6.03;;;8.70;99.90;;;;;;5145685;27;19997;-75
2024/04/15 02:57:49;;;;;;;13.10;6.22;;;8.70;99.90;;;;;;5145285;27;20011;-76
2024/04/15 03:00:15;;;;;;;16.30;7.07;;;8.70;63.70;;;;;;5168517;27;20001;-75
2024/04/15 03:02:40;;;;;;;14.95;7.22;;;8.70;1.00;;;;;;5177800;27;19996;-75
2024/04/15 03:05:06;;;;;;;14.45;6.65;;;8.70;17.00;;;;;;5225202;27;20013;-76
2024/04/15 03:07:31;;;;;;;15.13;6.90;;;8.80;1.00;;;;;;5277602;27;20005;-75
2024/04/15 03:09:57;;;;;;;17.35;7.07;;;8.80;65.00;;;;;;5301988;27;19997;-75
2024/04/15 03:12:23;;;;;;;11.60;6.60;;;8.80;99.90;;;;;;5361581;26;20004;-75
2024/04/15 03:14:49;;;;;;;13.88;6.68;;;8.70;99.90;;;;;;5406851;26;19992;-75
2024/04/15 03:17:14;;;;;;;14.93;6.53;;;8.70;99.90;;;;;;5416292;26;20002;-75
2024/04/15 03:19:40;;;;;;;15.63;6.63;;;8.70;99.90;;;;;;5416012;26;20023;-75
2024/04/15 03:22:07;;;;;;;17.25;6.97;;;8.70;99.90;;;;;;5416303;26;19992;-75
2024/04/15 03:24:32;;;;;;;17.40;6.15;;;8.70;99.90;;;;;;5416346;26;20036;-75
2024/04/15 03:26:59;;;;;;;12.48;6.15;;;8.70;99.90;;;;;;5415955;26;20488;-75
2024/04/15 03:29:24;;;;;;;15.80;6.53;;;8.70;99.90;;;;;;5380511;26;19988;-75
2024/04/15 03:31:50;;;;;;;13.85;6.97;;;8.70;99.90;;;;;;5380320;26;20007;-75
2024/04/15 03:34:15;;;;;;;12.43;6.03;;;8.70;99.90;;;;;;5380838;26;20011;-75
2024/04/15 03:36:41;;;;;;;14.35;6.07;;;8.70;99.90;;;;;;5345370;26;20491;-75
2024/04/15 03:39:06;;;;;;;14.00;6.20;;;8.70;99.90;;;;;;5286009;27;19994;-75
2024/04/15 03:41:32;;;;;;;13.65;6.03;;;8.70;99.90;;;;;;5276889;27;20006;-75
2024/04/15 03:43:57;;;;;;;12.27;5.57;;;8.70;99.90;;;;;;5310205;27;19997;-75
2024/04/15 03:46:23;;;;;;;11.75;6.05;;;8.80;99.90;;;;;;5310678;27;19993;-75
2024/04/15 03:48:48;;;;;;;11.43;5.55;;;8.80;1.00;;;;;;5310266;27;20057;-75
2024/04/15 03:51:14;;;;;;;11.77;5.03;;;8.80;1.00;;;;;;5311344;26;19994;-75
2024/04/15 03:53:40;;;;;;;14.95;5.25;;;8.90;1.00;;;;;;5310369;27;20005;-75
2024/04/15 03:56:06;;;;;;;14.85;4.80;;;8.90;99.90;;;;;;5310530;27;19993;-75
2024/04/15 03:58:31;;;;;;;10.43;4.90;;;8.90;99.90;;;;;;5311173;27;20021;-75
2024/04/15 04:01:00;;;;;;;14.50;5.55;;;8.90;99.90;;;;;;5335507;26;19996;-75
2024/04/15 04:03:26;;;;;;;13.20;4.88;;;8.90;99.90;;;;;;5344906;26;19989;-75
2024/04/15 04:05:55;;;;;;;12.75;5.07;;;9.00;99.90;;;;;;5344815;26;20185;-75
2024/04/15 04:08:21;;;;;;;10.55;4.68;;;9.00;99.90;;;;;;5371738;26;20066;-74
2024/04/15 04:10:47;;;;;;;11.20;4.45;;;9.00;99.90;;;;;;5406622;26;20086;-75
2024/04/15 04:13:13;;;;;;;9.27;4.40;;;9.10;99.90;;;;;;5415757;26;20073;-75
2024/04/15 04:15:44;;;;;;;11.57;4.13;;;9.10;99.90;;;;;;5387529;26;20007;-75
2024/04/15 04:18:10;;;;;;;14.60;4.65;;;9.10;99.90;;;;;;5380062;26;20011;-75
2024/04/15 04:20:35;;;;;;;10.45;4.47;;;9.20;99.90;;;;;;5380263;26;20024;-75
2024/04/15 04:23:01;;;;;;;9.98;3.85;;;9.20;34.00;;;;;;5380055;26;20323;-75
2024/04/15 04:25:26;;;;;;;11.50;3.97;;;9.20;1.00;;;;;;5379963;26;20345;-75
2024/04/15 04:27:52;;;;;;;9.88;4.40;;;9.30;1.00;;;;;;5380088;26;20003;-75
2024/04/15 04:30:17;;;;;;;10.35;3.55;;;9.30;1.00;;;;;;5379800;26;20311;-75
2024/04/15 04:32:43;;;;;;;7.40;3.67;;;9.40;1.00;;;;;;5379479;26;20010;-75
2024/04/15 04:35:09;;;;;;;10.30;3.80;;;9.40;1.00;;;;;;5379407;26;20006;-76
2024/04/15 04:37:35;;;;;;;10.95;3.75;;;9.40;1.00;;;;;;5276116;27;20324;-76
2024/04/15 04:40:01;;;;;;;9.35;3.95;;;9.40;1.00;;;;;;5280160;27;20054;-76
2024/04/15 04:42:27;;;;;;;10.68;3.55;;;9.50;1.00;;;;;;5242094;27;19995;-76
2024/04/15 04:44:56;;;;;;;8.93;2.97;;;9.50;1.00;;;;;;5208997;27;20042;-75
2024/04/15 04:47:22;;;;;;;8.57;3.10;;;9.50;1.00;;;;;;5208955;27;20070;-75
2024/04/15 04:49:52;;;;;;;9.15;3.30;;;9.60;1.00;;;;;;5208805;27;20483;-74
2024/04/15 04:52:18;;;;;;;7.60;2.88;;;9.60;1.00;;;;;;5208706;27;20526;-75
2024/04/15 04:54:44;;;;;;;12.40;3.17;;;9.70;1.00;;;;;;5209327;27;20000;-75
2024/04/15 04:57:10;;;;;;;10.10;2.65;;;9.70;1.00;;;;;;5209264;27;20012;-75
2024/04/15 04:59:37;;;;;;;10.30;3.00;;;9.70;1.00;;;;;;5208954;27;19999;-75
2024/04/15 05:02:03;;;;;;;7.57;2.38;;;9.70;1.00;;;;;;5209189;27;20010;-75
2024/04/15 05:04:29;;;;;;;12.40;2.85;;;9.80;1.00;;;;;;5208494;27;20023;-75
2024/04/15 05:06:55;;;;;;;8.90;2.78;;;9.80;1.00;;;;;;5211256;27;20003;-75
2024/04/15 05:09:20;;;;;;;8.93;2.72;;;9.90;1.00;;;;;;5237953;27;20002;-75
2024/04/15 05:11:46;;;;;;;8.40;2.63;;;9.90;1.00;;;;;;5244877;27;20082;-75
2024/04/15 05:14:12;;;;;;;7.75;2.50;;;9.90;1.00;;;;;;5271549;27;19994;-75
2024/04/15 05:16:38;;;;;;;13.20;3.22;;;9.90;1.00;;;;;;5306081;27;19997;-75
2024/04/15 05:19:03;;;;;;;16.38;3.20;;;9.90;1.00;;;;;;5312975;27;20039;-75
2024/04/15 05:21:29;;;;;;;9.23;2.40;;;9.90;1.00;;;;;;5313119;27;20345;-75
2024/04/15 05:23:54;;;;;;;10.27;2.45;;;9.90;1.00;;;;;;5312726;27;20013;-75
2024/04/15 05:26:20;;;;;;;7.55;3.00;;;9.90;1.00;;;;;;5312944;27;19990;-75
2024/04/15 05:28:45;;;;;;;7.72;2.22;;;9.90;1.00;;;;;;5312529;27;19997;-75
2024/04/15 05:31:11;;;;;;;6.85;2.03;;;9.90;1.00;;;;;;5313052;27;19993;-75
2024/04/15 05:33:36;;;;;;;7.40;2.28;;;9.80;1.00;;;;;;5312403;27;19993;-74
2024/04/15 05:36:02;;;;;;;6.85;2.38;;;9.80;1.00;;;;;;5312298;27;20048;-75
2024/04/15 05:38:29;;;;;;;10.65;2.40;;;9.80;15.30;;;;;;5302842;27;19993;-74
2024/04/15 05:40:54;;;;;;;9.98;2.85;;;9.80;99.90;;;;;;5312162;27;19994;-75
2024/04/15 05:43:20;;;;;;;7.68;2.63;;;9.70;99.90;;;;;;5312317;27;20399;-74
2024/04/15 05:45:47;;;;;;;7.57;2.33;;;9.70;99.90;;;;;;5312123;27;19994;-73
2024/04/15 05:48:13;;;;;;;7.50;2.22;;;9.70;99.90;;;;;;5311510;27;20044;-74
2024/04/15 05:50:41;;;;;;;11.65;3.17;;;9.60;99.90;;;;;;5312035;27;19994;-74
2024/04/15 05:53:06;;;;;;;9.23;2.35;;;9.70;99.90;;;;;;5311697;27;19994;-75
2024/04/15 05:55:32;;;;;;;7.88;2.65;;;9.60;99.90;;;;;;5244255;27;20497;-74
2024/04/15 05:57:57;;;;;;;9.35;2.95;;;9.60;99.90;;;;;;5268714;27;20001;-73
2024/04/15 06:00:23;;;;;;;12.07;2.90;;;9.60;1.00;;;;;;5277477;27;19999;-74
2024/04/15 06:02:48;;;;;;;11.30;3.00;;;9.60;15.70;;;;;;5277496;27;20025;-73
2024/04/15 06:05:14;;;;;;;12.00;2.53;;;9.60;99.90;;;;;;5243469;27;20031;-82
2024/04/15 06:07:40;;;;;;;11.20;3.25;;;9.60;99.90;;;;;;5244288;27;19995;-78
2024/04/15 06:10:05;;;;;;;6.78;2.47;;;9.60;1.00;;;;;;5243946;27;20423;-81
2024/04/15 06:12:31;;;;;;;9.90;3.47;;;9.50;1.00;;;;;;5268533;27;20469;-78
2024/04/15 06:14:58;;;;;;;10.35;2.83;;;9.50;28.40;;;;;;5277352;27;19994;-80
2024/04/15 06:17:24;;;;;;;9.10;2.78;;;9.50;99.90;;;;;;5277032;27;20002;-81
2024/04/15 06:19:49;;;;;;;7.57;2.65;;;9.60;99.90;;;;;;5277752;27;20470;-81
2024/04/15 06:22:16;;;;;;;8.75;2.92;;;9.60;99.90;;;;;;5277384;27;20575;-80
2024/04/15 06:24:42;;;;;;;8.23;2.50;;;9.70;99.90;;;;;;5277259;27;20046;-81
2024/04/15 06:27:07;;;;;;;8.48;2.78;;;9.60;99.90;;;;;;5302456;27;20001;-82
2024/04/15 06:29:35;;;;;;;7.88;2.90;;;9.70;99.90;;;;;;5337157;26;20404;-81
2024/04/15 06:32:01;;;;;;;9.50;2.70;;;9.70;1.00;;;;;;5345878;26;20009;-80
2024/04/15 06:34:29;;;;;;;8.10;3.00;;;9.80;1.00;;;;;;5345866;26;20000;-80
2024/04/15 06:36:55;;;;;;;8.15;2.88;;;9.80;1.00;;;;;;5372630;26;20331;-84
2024/04/15 06:39:21;;;;;;;9.85;2.58;;;9.90;1.00;;;;;;5381329;26;20415;-83
2024/04/15 06:41:46;;;;;;;7.53;2.65;;;9.80;1.00;;;;;;5381319;26;20011;-81
2024/04/15 06:44:13;;;;;;;7.25;2.55;;;9.80;99.90;;;;;;5381275;26;20070;-83
2024/04/15 06:46:39;;;;;;;8.50;2.33;;;9.80;99.90;;;;;;5381327;26;20008;-83
2024/04/15 06:49:05;;;;;;;9.00;3.10;;;9.80;99.90;;;;;;5381114;26;20090;-83
2024/04/15 06:51:30;;;;;;;11.15;3.60;;;9.80;99.90;;;;;;5345890;26;19989;-81
2024/04/15 06:53:56;;;;;;;7.75;2.47;;;10.00;99.90;;;;;;5243936;27;20026;-82
2024/04/15 06:56:21;;;;;;;9.45;2.47;;;10.00;99.90;;;;;;5244098;27;19999;-79
2024/04/15 06:58:47;;;;;;;7.03;2.30;;;10.20;66.50;;;;;;5210129;27;19996;-78
2024/04/15 07:01:13;;;;;;;10.63;2.20;;;10.40;99.90;;;;;;5213850;27;20326;-78
2024/04/15 07:03:38;;;;;;;10.13;2.42;;;10.40;97.40;;;;;;5243448;27;20102;-80
2024/04/15 07:06:04;;;;;;;11.77;2.72;;;10.40;33.20;;;;;;5243724;27;20003;-79
2024/04/15 07:08:30;;;;;;;9.55;3.28;;;10.40;93.30;;;;;;5243545;27;20010;-78
2024/04/15 07:10:55;;;;;;;8.90;2.85;;;10.20;92.40;;;;;;5243295;27;20003;-79
2024/04/15 07:13:22;;;;;;;8.38;3.30;;;10.10;99.90;;;;;;5276746;27;19998;-79
2024/04/15 07:15:48;;;;;;;9.25;3.05;;;10.00;97.90;;;;;;5277410;27;20063;-79
2024/04/15 07:18:14;;;;;;;9.00;3.03;;;10.10;99.90;;;;;;5276901;27;20005;-79
2024/04/15 07:20:39;;;;;;;8.45;3.00;;;10.10;99.90;;;;;;5277466;27;19998;-80
2024/04/15 07:23:05;;;;;;;8.45;2.80;;;10.20;99.90;;;;;;5277419;27;20002;-79
2024/04/15 07:25:30;;;;;;;11.38;2.97;;;10.20;99.90;;;;;;5326569;26;20004;-80
2024/04/15 07:27:56;;;;;;;8.77;2.90;;;10.20;99.90;;;;;;5344288;26;20007;-81
2024/04/15 07:30:21;;;;;;;9.85;2.70;;;10.20;99.90;;;;;;5371676;26;20028;-80
2024/04/15 07:32:47;;;;;;;9.82;2.85;;;10.20;1.00;;;;;;5380593;26;20398;-82
2024/04/15 07:35:13;;;;;;;60.95;29.17;;;10.20;1.00;;;;;;5380025;26;20012;-80
2024/04/15 07:37:38;;;;;;;8.13;2.88;;;10.10;1.00;;;;;;5380128;26;20420;-84
2024/04/15 07:40:04;;;;;;;4.93;2.10;;;10.00;1.00;;;;;;5380593;26;19996;-77
2024/04/15 07:42:30;;;;;;;5.50;2.05;;;10.00;87.80;;;;;;5344719;26;20382;-79
2024/04/15 07:44:56;;;;;;;11.20;2.53;;;10.00;99.90;;;;;;5310465;27;19993;-79
2024/04/15 07:47:22;;;;;;;7.60;2.47;;;10.00;99.90;;;;;;5311090;27;20158;-79
2024/04/15 07:49:47;;;;;;;8.32;2.45;;;10.00;99.90;;;;;;5310170;26;19997;-81
2024/04/15 07:52:13;;;;;;;6.25;2.55;;;10.00;99.90;;;;;;5310868;27;19997;-80
2024/04/15 07:54:38;;;;;;;14.13;2.85;;;10.00;99.90;;;;;;5277073;27;19994;-81
2024/04/15 07:57:04;;;;;;;8.32;3.13;;;10.00;99.90;;;;;;5209465;27;20327;-81
2024/04/15 07:59:29;;;;;;;10.18;3.13;;;9.90;1.00;;;;;;5209934;27;20012;-81
2024/04/15 08:01:55;;;;;;;8.45;2.58;;;9.80;1.00;;;;;;5209722;27;20388;-77
2024/04/15 08:04:20;;;;;;;6.32;2.17;;;9.80;1.00;;;;;;5176574;27;19992;-83
2024/04/15 08:06:46;;;;;;;9.40;2.40;;;9.80;1.00;;;;;;5177152;27;20503;-78
2024/04/15 08:09:12;;;;;;;8.10;2.30;;;9.80;1.00;;;;;;5131140;27;20074;-83
2024/04/15 08:11:37;;;;;;;7.05;2.15;;;9.80;99.90;;;;;;5143781;27;20062;-79
2024/04/15 08:14:03;;;;;;;7.80;2.47;;;9.90;99.90;;;;;;5144420;27;20008;-79
2024/04/15 08:16:29;;;;;;;7.72;2.28;;;10.00;99.90;;;;;;5102248;28;20074;-79
2024/04/15 08:18:54;;;;;;;7.75;2.17;;;10.00;99.90;;;;;;5179014;27;19993;-78
2024/04/15 08:21:21;;;;;;;7.88;2.58;;;9.90;99.90;;;;;;5099043;27;20031;-77
2024/04/15 08:23:47;;;;;;;10.90;3.03;;;9.80;1.00;;;;;;5139671;27;20004;-79
2024/04/15 08:26:13;;;;;;;7.07;2.53;;;9.90;1.00;;;;;;5199625;27;20007;-73
2024/04/15 08:28:39;;;;;;;8.18;2.80;;;10.00;1.00;;;;;;5120606;27;20074;-75
2024/04/15 08:31:04;;;;;;;8.23;2.60;;;10.00;1.00;;;;;;5111304;28;20127;-77
2024/04/15 08:33:30;;;;;;;8.05;2.60;;;10.00;1.00;;;;;;5175962;27;19997;-77
2024/04/15 08:35:55;;;;;;;7.20;2.65;;;10.10;1.00;;;;;;5098269;27;20302;-76
2024/04/15 08:38:21;;;;;;;7.72;2.33;;;10.20;1.00;;;;;;5176098;27;20004;-77
2024/04/15 08:40:56;;;;;;;7.85;2.38;;;10.20;1.00;;;;;;5152032;27;20453;-78
2024/04/15 08:43:23;;;;;;;7.53;2.35;;;10.30;1.00;;;;;;5142980;27;20008;-76
2024/04/15 08:46:02;;;;;;;6.90;2.13;;;10.40;7.00;;;;;;5116515;27;20041;-78
2024/04/15 08:48:29;;;;;;;5.55;1.70;;;10.50;1.00;;;;;;5139385;27;19997;-76
2024/04/15 08:50:56;;;;;;;5.05;1.95;;;10.50;99.90;;;;;;5111660;28;20002;-72
2024/04/15 08:53:23;;;;;;;5.13;1.85;;;10.70;99.90;;;;;;5136317;27;20507;-75
2024/04/15 08:55:48;;;;;;;4.50;1.55;;;10.80;99.90;;;;;;5143559;27;20012;-74
2024/04/15 08:58:14;;;;;;;6.15;2.15;;;11.10;99.90;;;;;;5114637;27;19997;-78
2024/04/15 09:00:41;;;;;;;7.78;2.78;;;11.40;40.80;;;;;;5082993;28;20419;-73
2024/04/15 09:03:09;;;;;;;5.20;1.65;;;11.70;1.00;;;;;;5083270;28;19999;-73
2024/04/15 09:05:35;;;;;;;4.50;1.58;;;12.00;1.00;;;;;;5050960;28;20003;-73
2024/04/15 09:08:00;;;;;;;5.82;1.52;;;12.20;99.90;;;;;;5108139;28;20334;-74
2024/04/15 09:10:27;;;;;;;4.97;1.42;;;12.60;99.90;;;;;;5082115;28;20010;-75
2024/04/15 09:12:52;;;;;;;4.53;1.40;;;13.10;99.90;;;;;;5079209;28;19995;-78
2024/04/15 09:15:22;;;;;;;3.92;1.10;;;13.50;99.90;;;;;;5134025;27;20406;-77
2024/04/15 09:17:50;;;;;;;3.47;1.38;;;13.50;1.00;;;;;;5142959;27;20005;-78
2024/04/15 09:20:18;;;;;;;4.07;1.50;;;13.70;23.40;;;;;;5142658;27;19997;-79
2024/04/15 09:22:44;;;;;;;7.35;1.92;;;13.70;99.90;;;;;;5156976;27;20011;-78
2024/04/15 09:25:10;;;;;;;3.85;1.27;;;13.70;99.90;;;;;;5148007;27;20490;-79
2024/04/15 09:27:36;;;;;;;4.47;1.77;;;13.40;99.90;;;;;;5174522;27;20009;-79
2024/04/15 09:30:03;;;;;;;4.97;1.50;;;13.40;99.90;;;;;;5174105;27;20381;-77
2024/04/15 09:32:28;;;;;;;4.95;1.30;;;13.70;99.90;;;;;;5146480;27;20009;-77
2024/04/15 09:35:02;;;;;;;11.07;5.43;;;13.80;99.90;;;;;;5147709;27;20072;-78
2024/04/15 09:37:31;;;;;;;5.20;1.80;;;14.40;19.30;;;;;;5110039;28;20014;-77
2024/04/15 09:39:57;;;;;;;4.45;1.27;;;15.50;1.00;;;;;;5083127;28;20104;-77
2024/04/15 09:42:23;;;;;;;3.28;1.50;;;17.40;1.00;;;;;;5047264;28;20069;-77
2024/04/15 09:44:49;;;;;;;5.13;1.55;;;18.50;99.90;;;;;;4990563;28;20001;-77
2024/04/15 09:47:16;;;;;;;5.13;1.58;;;18.90;99.90;;;;;;4986404;28;20000;-77
2024/04/15 09:49:47;;;;;;;4.10;1.50;;;17.80;99.90;;;;;;5011785;28;20006;-77
2024/04/15 09:52:29;;;;;;;5.65;1.20;;;16.90;81.90;;;;;;5018714;28;20000;-77
2024/04/15 09:55:04;;;;;;;3.97;1.33;;;16.50;90.70;;;;;;5049937;28;20003;-77
2024/04/15 09:57:33;;;;;;;4.28;1.20;;;16.60;79.30;;;;;;5081987;28;20010;-78
2024/04/15 10:00:01;;;;;;;5.80;1.45;;;18.20;13.40;;;;;;5053626;28;20155;-77
2024/04/15 10:02:41;;;;;;;5.25;1.50;;;19.50;2.30;;;;;;5112979;28;20017;-78
2024/04/15 10:05:23;;;;;;;5.80;1.25;;;20.50;1.00;;;;;;5141350;27;20059;-76
2024/04/15 10:07:54;;;;;;;4.28;1.70;;;18.40;1.00;;;;;;5126783;27;20075;-76
2024/04/15 10:10:20;;;;;;;4.85;1.58;;;17.40;1.00;;;;;;5178242;27;20008;-78
2024/04/15 10:12:52;;;;;;;4.20;1.73;;;17.00;1.00;;;;;;5177820;27;20004;-77
2024/04/15 10:15:20;;;;;;;5.05;1.50;;;17.40;1.00;;;;;;5170097;27;20005;-78
2024/04/15 10:18:05;;;;;;;7.95;1.88;;;17.50;1.00;;;;;;5177809;27;20076;-78
2024/04/15 10:20:38;;;;;;;8.60;3.22;;;17.40;1.00;;;;;;5165788;27;20008;-77
2024/04/15 10:23:09;;;;;;;4.55;1.60;;;16.50;1.00;;;;;;5145867;27;20001;-78
2024/04/15 10:25:35;;;;;;;5.68;1.88;;;15.80;1.00;;;;;;5145782;27;19997;-78
2024/04/15 10:28:01;;;;;;;5.47;1.70;;;15.30;1.00;;;;;;5145470;27;20001;-78
2024/04/15 10:30:29;;;;;;;6.50;1.90;;;15.10;1.00;;;;;;5129014;27;20018;-77
2024/04/15 10:32:58;;;;;;;5.47;1.80;;;15.50;1.00;;;;;;5152867;27;20000;-78
2024/04/15 10:35:25;;;;;;;4.50;1.40;;;15.90;1.00;;;;;;5198641;27;20025;-77
2024/04/15 10:37:58;;;;;;;4.45;1.90;;;15.70;1.00;;;;;;5114428;27;20002;-77
2024/04/15 10:40:43;;;;;;;5.35;2.20;;;15.70;1.00;;;;;;5141940;27;20029;-76
2024/04/15 10:43:12;;;;;;;5.53;1.90;;;15.50;1.00;;;;;;5145170;27;20001;-77
2024/04/15 10:45:38;;;;;;;6.13;2.42;;;15.40;1.00;;;;;;5176825;27;20005;-78
2024/04/15 10:48:04;;;;;;;12.13;5.38;;;14.80;1.00;;;;;;5182752;27;20075;-75
2024/04/15 10:50:30;;;;;;;6.50;3.22;;;14.30;1.00;;;;;;5176295;27;19992;-76
2024/04/15 10:52:55;;;;;;;19.95;11.60;;;14.70;1.00;;;;;;5174259;27;20021;-78
2024/04/15 10:55:21;;;;;;;9.63;5.72;;;14.50;1.00;;;;;;5175093;27;20097;-75
2024/04/15 10:57:49;;;;;;;8.93;4.43;;;14.50;1.00;;;;;;5175242;27;20072;-76
2024/04/15 11:00:20;;;;;;;7.03;3.28;;;14.10;26.20;;;;;;5111800;28;20510;-75
2024/04/15 11:02:49;;;;;;;10.70;3.55;;;14.30;30.70;;;;;;5112483;28;20013;-75
2024/04/15 11:05:15;;;;;;;6.18;2.55;;;14.30;12.40;;;;;;5112422;28;20043;-76
2024/04/15 11:07:42;;;;;;;6.18;3.28;;;14.20;26.70;;;;;;5088935;28;19999;-76
2024/04/15 11:10:11;;;;;;;6.00;2.53;;;14.40;35.30;;;;;;5144829;27;20016;-76
2024/04/15 11:12:37;;;;;;;6.32;2.10;;;14.60;17.60;;;;;;5144175;27;20008;-76
2024/04/15 11:15:07;;;;;;;6.15;2.28;;;14.40;8.90;;;;;;5139133;27;20005;-76
2024/04/15 11:17:33;;;;;;;6.13;2.30;;;14.50;19.60;;;;;;5145065;27;19997;-77
2024/04/15 11:20:09;;;;;;;6.28;2.45;;;14.30;24.10;;;;;;5090644;27;20049;-77
2024/04/15 11:22:35;;;;;;;6.35;2.28;;;14.10;29.70;;;;;;5052484;28;20007;-77
2024/04/15 11:25:01;;;;;;;6.40;2.40;;;13.90;60.60;;;;;;5021028;28;20027;-77
2024/04/15 11:27:31;;;;;;;5.70;2.00;;;13.90;74.00;;;;;;5049194;28;20080;-77
2024/04/15 11:29:58;;;;;;;6.47;2.13;;;13.80;96.20;;;;;;5049700;28;20010;-77
2024/04/15 11:32:26;;;;;;;5.88;2.63;;;14.00;99.90;;;;;;5112158;28;20080;-77
2024/04/15 11:34:52;;;;;;;10.60;6.03;;;14.50;66.60;;;;;;5082898;28;19994;-77
2024/04/15 11:37:18;;;;;;;7.53;2.83;;;14.60;63.10;;;;;;5024334;28;20000;-77
2024/04/15 11:39:43;;;;;;;5.50;2.05;;;14.70;42.00;;;;;;5018454;28;20004;-77
2024/04/15 11:42:09;;;;;;;7.95;2.58;;;14.70;41.40;;;;;;5019137;28;20000;-77
2024/04/15 11:44:35;;;;;;;4.65;1.88;;;14.90;49.60;;;;;;5088239;27;20012;-77
2024/04/15 11:47:01;;;;;;;5.32;1.75;;;15.10;34.60;;;;;;5201299;27;20611;-77
2024/04/15 11:49:27;;;;;;;5.03;1.90;;;15.30;17.00;;;;;;5209354;27;19996;-77
2024/04/15 11:51:53;;;;;;;7.97;2.25;;;14.20;18.40;;;;;;5210051;27;20058;-77
2024/04/15 11:54:19;;;;;;;6.40;2.25;;;14.80;28.40;;;;;;5209789;27;19992;-77
2024/04/15 11:56:44;;;;;;;5.43;1.80;;;15.50;12.20;;;;;;5209822;27;20159;-78
2024/04/15 11:59:10;;;;;;;4.78;1.80;;;14.60;9.10;;;;;;5209171;27;20479;-78
2024/04/15 12:01:35;;;;;;;6.53;1.80;;;14.80;14.60;;;;;;5209371;27;20006;-77
2024/04/15 12:04:01;;;;;;;6.03;1.90;;;15.10;7.70;;;;;;5258944;27;20053;-77
2024/04/15 12:06:27;;;;;;;14.50;2.35;;;15.70;1.00;;;;;;5209103;27;20006;-77
2024/04/15 12:08:53;;;;;;;5.07;2.10;;;15.50;1.00;;;;;;5200329;27;20471;-77
2024/04/15 12:11:22;;;;;;;4.97;2.03;;;15.50;1.00;;;;;;5242026;27;19991;-77
2024/04/15 12:13:49;;;;;;;7.75;2.50;;;15.40;1.00;;;;;;5241243;27;20078;-77
2024/04/15 12:16:15;;;;;;;7.93;1.98;;;15.20;1.00;;;;;;5209177;27;19999;-77
2024/04/15 12:18:41;;;;;;;4.20;1.92;;;15.40;1.00;;;;;;5209036;27;20545;-77
2024/04/15 12:21:06;;;;;;;5.78;1.90;;;15.80;1.00;;;;;;5175733;27;20333;-77
2024/04/15 12:23:32;;;;;;;6.57;1.92;;;15.70;1.00;;;;;;5176060;27;20048;-77
2024/04/15 12:25:57;;;;;;;4.80;1.88;;;15.80;1.00;;;;;;5200397;27;20340;-77
2024/04/15 12:28:23;;;;;;;5.55;2.22;;;16.10;1.00;;;;;;5160178;27;20001;-77
2024/04/15 12:30:48;;;;;;;6.72;2.25;;;16.40;1.00;;;;;;5192295;27;20112;-77
2024/04/15 12:33:14;;;;;;;8.50;2.63;;;16.10;1.00;;;;;;5209029;27;20424;-77
2024/04/15 12:35:40;;;;;;;5.93;2.20;;;15.50;1.00;;;;;;5175976;27;20072;-77
2024/04/15 12:38:07;;;;;;;4.60;1.92;;;15.80;1.00;;;;;;5200099;27;19996;-77
2024/04/15 12:40:32;;;;;;;8.00;2.10;;;16.10;1.00;;;;;;5151253;27;20016;-77
2024/04/15 12:42:58;;;;;;;6.55;1.95;;;16.40;1.00;;;;;;5192047;27;20484;-77
2024/04/15 12:45:24;;;;;;;4.95;1.95;;;15.70;1.00;;;;;;5208866;27;20067;-77
2024/04/15 12:47:49;;;;;;;7.95;2.30;;;15.10;1.00;;;;;;5152472;27;19997;-76